Time;durP1;ratioP1;P1;durP2;ratioP2;P2;SDS_P1;SDS_P2;PMS_P1;PMS_P2;Temp;Humidity;BMP_temperature;BMP_pressure;BME280_temperature;BME280_humidity;BME280_pressure;Samples;Min_cycle;Max_cycle;Signal;HPM_P1;HPM_P2
2022/08/28 00:01:06;;;;;;;11.13;4.15;;;15.00;93.30;;;;;;5043199;28;20049;-48
2022/08/28 00:03:35;;;;;;;6.93;3.53;;;15.00;93.40;;;;;;5052580;28;20047;-50
2022/08/28 00:06:01;;;;;;;10.73;3.78;;;15.00;93.40;;;;;;5051682;28;20140;-47
2022/08/28 00:08:29;;;;;;;11.35;3.83;;;15.00;93.50;;;;;;5049559;28;20045;-45
2022/08/28 00:10:56;;;;;;;8.85;3.08;;;15.00;93.50;;;;;;5032250;28;20045;-47
2022/08/28 00:13:24;;;;;;;8.02;3.70;;;14.90;93.40;;;;;;5052377;28;20094;-46
2022/08/28 00:15:51;;;;;;;12.27;3.50;;;14.90;93.50;;;;;;5033805;28;20048;-47
2022/08/28 00:18:18;;;;;;;10.80;3.40;;;14.90;93.60;;;;;;5051028;28;20077;-46
2022/08/28 00:20:47;;;;;;;10.27;3.53;;;14.90;93.60;;;;;;5021157;28;20045;-43
2022/08/28 00:23:14;;;;;;;10.40;3.60;;;14.80;93.60;;;;;;5050658;28;20083;-48
2022/08/28 00:25:41;;;;;;;12.35;3.55;;;14.80;93.70;;;;;;5033718;28;20049;-47
2022/08/28 00:28:08;;;;;;;12.13;4.40;;;14.80;93.90;;;;;;5051986;28;20091;-47
2022/08/28 00:30:36;;;;;;;13.88;3.92;;;14.80;93.90;;;;;;5051027;28;20477;-39
2022/08/28 00:33:05;;;;;;;7.38;3.45;;;14.70;94.00;;;;;;5042159;28;20055;-47
2022/08/28 00:35:32;;;;;;;9.98;3.58;;;14.70;94.10;;;;;;5050141;28;20119;-41
2022/08/28 00:38:00;;;;;;;10.85;3.80;;;14.70;94.20;;;;;;5051066;28;20380;-46
2022/08/28 00:40:29;;;;;;;11.10;4.10;;;14.60;94.30;;;;;;5037785;28;20102;-45
2022/08/28 00:42:56;;;;;;;12.75;3.80;;;14.60;94.40;;;;;;5053792;28;20436;-45
2022/08/28 00:45:22;;;;;;;9.05;4.15;;;14.60;94.50;;;;;;5054543;28;20088;-45
2022/08/28 00:47:49;;;;;;;7.25;3.17;;;14.50;94.50;;;;;;5055849;28;20080;-49
2022/08/28 00:50:19;;;;;;;9.73;3.70;;;14.50;94.60;;;;;;5037050;28;20102;-48
2022/08/28 00:52:46;;;;;;;8.55;3.30;;;14.50;94.70;;;;;;5053859;28;20045;-48
2022/08/28 00:55:15;;;;;;;8.30;3.70;;;14.50;94.70;;;;;;5054570;28;20045;-48
2022/08/28 00:57:47;;;;;;;11.25;3.70;;;14.50;94.60;;;;;;5053569;28;20159;-44
2022/08/28 01:00:16;;;;;;;8.77;3.97;;;14.40;94.60;;;;;;5033047;28;20052;-51
2022/08/28 01:02:43;;;;;;;9.65;4.00;;;14.40;94.60;;;;;;5053060;28;20110;-51
2022/08/28 01:05:10;;;;;;;9.90;3.28;;;14.40;94.70;;;;;;5037413;28;20052;-47
2022/08/28 01:07:37;;;;;;;10.55;4.38;;;14.30;94.70;;;;;;5054986;28;20083;-49
2022/08/28 01:10:04;;;;;;;10.05;4.18;;;14.30;94.90;;;;;;5053495;28;20044;-40
2022/08/28 01:12:33;;;;;;;12.35;4.13;;;14.40;95.10;;;;;;5052469;28;20076;-41
2022/08/28 01:15:00;;;;;;;10.77;3.75;;;14.30;95.10;;;;;;5045838;28;20464;-44
2022/08/28 01:17:28;;;;;;;9.82;3.65;;;14.30;95.10;;;;;;5053606;28;20417;-48
2022/08/28 01:19:57;;;;;;;7.97;3.90;;;14.20;94.90;;;;;;5052664;28;20057;-44
2022/08/28 01:22:27;;;;;;;14.70;4.07;;;14.30;95.10;;;;;;5053002;28;20091;-47
2022/08/28 01:24:56;;;;;;;10.05;4.40;;;14.20;95.20;;;;;;5053738;28;20452;-47
2022/08/28 01:27:22;;;;;;;8.77;3.72;;;14.20;95.40;;;;;;5055243;28;20090;-46
2022/08/28 01:29:49;;;;;;;9.05;3.92;;;14.20;95.40;;;;;;5054665;28;20392;-46
2022/08/28 01:32:27;;;;;;;8.13;3.60;;;14.10;95.40;;;;;;5054102;28;20076;-45
2022/08/28 01:34:54;;;;;;;7.80;3.58;;;14.10;95.10;;;;;;5053462;28;20448;-44
2022/08/28 01:37:21;;;;;;;10.50;4.03;;;14.10;95.40;;;;;;5037485;28;20532;-45
2022/08/28 01:39:48;;;;;;;9.73;3.45;;;14.10;95.50;;;;;;5055104;28;20538;-44
2022/08/28 01:42:16;;;;;;;9.27;3.58;;;14.00;95.50;;;;;;5033988;28;20124;-47
2022/08/28 01:44:42;;;;;;;10.85;3.95;;;14.00;95.50;;;;;;5037367;28;20208;-45
2022/08/28 01:47:09;;;;;;;10.73;4.10;;;14.00;95.50;;;;;;5053550;28;20446;-51
2022/08/28 01:49:36;;;;;;;9.27;4.25;;;14.00;95.60;;;;;;5052489;28;20095;-46
2022/08/28 01:52:03;;;;;;;9.60;4.45;;;13.90;95.80;;;;;;5034250;28;20131;-44
2022/08/28 01:54:30;;;;;;;9.48;3.85;;;13.90;95.90;;;;;;5054186;28;20119;-45
2022/08/28 01:56:57;;;;;;;11.85;3.72;;;13.90;96.10;;;;;;5053524;28;20369;-50
2022/08/28 01:59:25;;;;;;;10.90;3.72;;;13.90;95.80;;;;;;5050759;28;20374;-46
2022/08/28 02:01:52;;;;;;;9.82;3.65;;;13.90;96.00;;;;;;5035273;28;20099;-47
2022/08/28 02:04:19;;;;;;;7.35;3.10;;;13.80;96.00;;;;;;5053915;28;20045;-50
2022/08/28 02:06:46;;;;;;;10.45;3.83;;;13.80;96.00;;;;;;5052448;28;20072;-44
2022/08/28 02:09:13;;;;;;;10.43;3.80;;;13.80;96.10;;;;;;5029702;28;20110;-46
2022/08/28 02:11:41;;;;;;;8.43;3.75;;;13.80;96.10;;;;;;5053824;28;20485;-46
2022/08/28 02:14:08;;;;;;;10.40;3.58;;;13.80;96.20;;;;;;5036059;28;20420;-45
2022/08/28 02:16:36;;;;;;;10.77;3.88;;;13.70;96.20;;;;;;5052784;28;20561;-46
2022/08/28 02:19:03;;;;;;;9.85;3.75;;;13.70;96.30;;;;;;5034135;28;20447;-44
2022/08/28 02:21:30;;;;;;;8.70;3.40;;;13.70;96.40;;;;;;5052104;28;20477;-46
2022/08/28 02:23:57;;;;;;;9.50;3.33;;;13.70;96.40;;;;;;5053661;28;20045;-45
2022/08/28 02:26:24;;;;;;;11.40;4.07;;;13.70;96.40;;;;;;5035615;28;20052;-42
2022/08/28 02:28:51;;;;;;;11.38;3.45;;;13.70;96.50;;;;;;5028333;28;20053;-46
2022/08/28 02:31:18;;;;;;;7.32;3.50;;;13.60;96.40;;;;;;5040683;28;20073;-46
2022/08/28 02:33:46;;;;;;;9.82;3.42;;;13.60;96.50;;;;;;5048623;28;20056;-45
2022/08/28 02:36:14;;;;;;;12.73;3.90;;;13.60;96.30;;;;;;5045888;28;20384;-47
2022/08/28 02:38:41;;;;;;;10.85;3.83;;;13.60;96.50;;;;;;5035420;28;20435;-46
2022/08/28 02:41:08;;;;;;;9.23;3.00;;;13.60;96.60;;;;;;5051447;28;20128;-47
2022/08/28 02:43:34;;;;;;;10.35;3.20;;;13.60;96.70;;;;;;5050516;28;20067;-46
2022/08/28 02:46:01;;;;;;;9.15;3.70;;;13.50;96.70;;;;;;5034811;28;20132;-46
2022/08/28 02:48:30;;;;;;;9.77;3.53;;;13.50;96.80;;;;;;5036611;28;20432;-47
2022/08/28 02:50:59;;;;;;;6.68;2.95;;;13.50;96.70;;;;;;5053439;28;20124;-48
2022/08/28 02:53:26;;;;;;;10.80;3.80;;;13.50;96.50;;;;;;5045637;28;20094;-51
2022/08/28 02:55:53;;;;;;;6.93;3.30;;;13.50;96.60;;;;;;5052135;28;20124;-39
2022/08/28 02:58:20;;;;;;;8.30;3.47;;;13.40;96.70;;;;;;5046740;28;20547;-44
2022/08/28 03:00:47;;;;;;;8.88;3.50;;;13.40;96.80;;;;;;5051436;28;20057;-48
2022/08/28 03:03:14;;;;;;;16.02;4.32;;;13.40;96.90;;;;;;5033907;28;20124;-45
2022/08/28 03:05:40;;;;;;;11.95;4.18;;;13.40;97.00;;;;;;5050778;28;20488;-45
2022/08/28 03:08:08;;;;;;;7.72;3.13;;;13.40;97.00;;;;;;5034678;28;20103;-45
2022/08/28 03:10:35;;;;;;;6.85;2.88;;;13.40;97.10;;;;;;5050759;28;20127;-44
2022/08/28 03:13:02;;;;;;;6.65;3.08;;;13.30;97.00;;;;;;5052732;28;20041;-44
2022/08/28 03:15:29;;;;;;;8.10;3.17;;;13.30;97.00;;;;;;5052729;28;20431;-46
2022/08/28 03:17:56;;;;;;;8.23;3.30;;;13.30;97.00;;;;;;5027478;28;20080;-45
2022/08/28 03:20:22;;;;;;;11.00;3.78;;;13.30;97.10;;;;;;5051337;28;20473;-47
2022/08/28 03:25:34;;;;;;;7.82;3.35;;;13.30;97.30;;;;;;5052476;28;20044;-46
2022/08/28 03:28:01;;;;;;;9.75;3.70;;;13.20;97.30;;;;;;5051674;28;20076;-41
2022/08/28 03:30:28;;;;;;;12.05;3.85;;;13.20;97.30;;;;;;5034739;28;20052;-48
2022/08/28 03:32:55;;;;;;;12.55;3.55;;;13.20;97.40;;;;;;5052862;28;20480;-45
2022/08/28 03:35:22;;;;;;;10.80;3.60;;;13.20;97.60;;;;;;5052667;28;20076;-45
2022/08/28 03:37:49;;;;;;;10.95;3.72;;;13.20;97.50;;;;;;5052160;28;20076;-49
2022/08/28 03:40:16;;;;;;;9.23;3.35;;;13.20;97.50;;;;;;5034273;28;20049;-48
2022/08/28 03:42:44;;;;;;;10.52;3.63;;;13.20;97.60;;;;;;5052288;28;20040;-47
2022/08/28 03:45:11;;;;;;;9.85;4.53;;;13.20;97.70;;;;;;5034271;28;20095;-47
2022/08/28 03:47:38;;;;;;;9.07;3.33;;;13.10;97.80;;;;;;5051548;28;20052;-44
2022/08/28 03:50:06;;;;;;;5.57;3.28;;;13.10;97.80;;;;;;5046097;28;20539;-49
2022/08/28 03:52:33;;;;;;;9.15;3.65;;;13.10;97.80;;;;;;5042285;28;20052;-48
2022/08/28 03:55:00;;;;;;;9.95;3.72;;;13.10;97.70;;;;;;5033531;28;20138;-40
2022/08/28 03:57:26;;;;;;;11.18;3.88;;;13.10;97.60;;;;;;5034265;28;20076;-45
2022/08/28 03:59:54;;;;;;;11.63;3.63;;;13.00;97.70;;;;;;5050935;28;20104;-44
2022/08/28 04:02:21;;;;;;;10.25;3.28;;;13.00;98.20;;;;;;5028914;28;20103;-48
2022/08/28 04:04:48;;;;;;;7.25;3.17;;;13.00;97.90;;;;;;5038832;28;20119;-46
2022/08/28 04:07:15;;;;;;;9.07;3.60;;;13.00;97.80;;;;;;5049527;28;20106;-42
2022/08/28 04:09:42;;;;;;;8.13;3.15;;;13.00;97.80;;;;;;5034614;28;20124;-43
2022/08/28 04:12:09;;;;;;;9.40;3.67;;;13.00;97.80;;;;;;5051079;28;20449;-45
2022/08/28 04:14:36;;;;;;;11.75;4.18;;;13.00;98.00;;;;;;5054323;28;20134;-47
2022/08/28 04:17:04;;;;;;;11.20;3.50;;;12.90;98.00;;;;;;5036831;28;20127;-44
2022/08/28 04:19:32;;;;;;;9.73;3.92;;;12.90;98.00;;;;;;5056435;28;20106;-46
2022/08/28 04:21:58;;;;;;;9.85;3.20;;;12.90;97.90;;;;;;5036330;28;20150;-45
2022/08/28 04:24:25;;;;;;;11.27;3.65;;;12.90;97.90;;;;;;5045884;28;20084;-44
2022/08/28 04:26:52;;;;;;;10.80;4.05;;;12.80;97.80;;;;;;5049529;28;20038;-44
2022/08/28 04:29:19;;;;;;;11.32;3.63;;;12.90;97.90;;;;;;5036457;28;20045;-45
2022/08/28 04:31:46;;;;;;;9.93;3.03;;;12.90;98.20;;;;;;5033709;28;20049;-45
2022/08/28 04:34:14;;;;;;;11.13;3.70;;;12.90;98.40;;;;;;5054390;28;20044;-46
2022/08/28 04:36:41;;;;;;;10.93;3.30;;;12.90;98.50;;;;;;5054396;28;20081;-48
2022/08/28 04:39:09;;;;;;;9.52;4.07;;;12.90;98.90;;;;;;5048718;28;20041;-45
2022/08/28 04:41:37;;;;;;;6.57;3.15;;;12.90;98.70;;;;;;5035855;28;20530;-44
2022/08/28 04:44:04;;;;;;;7.18;2.90;;;12.90;98.60;;;;;;5038035;28;20491;-45
2022/08/28 04:46:31;;;;;;;10.38;3.83;;;13.00;98.60;;;;;;5055041;28;20116;-42
2022/08/28 04:48:58;;;;;;;6.03;2.63;;;13.00;98.60;;;;;;5055084;28;20056;-46
2022/08/28 04:51:26;;;;;;;6.50;3.20;;;13.00;98.60;;;;;;5037210;28;20045;-49
2022/08/28 04:53:53;;;;;;;7.55;2.90;;;13.00;98.50;;;;;;5055123;28;20114;-45
2022/08/28 04:56:20;;;;;;;9.00;3.15;;;13.00;98.60;;;;;;5054870;28;20083;-45
2022/08/28 04:58:46;;;;;;;9.57;2.92;;;13.00;98.70;;;;;;5035481;28;20148;-43
2022/08/28 05:01:17;;;;;;;8.68;3.17;;;13.00;98.70;;;;;;5053694;28;20055;-45
2022/08/28 05:03:44;;;;;;;7.05;2.92;;;13.00;98.70;;;;;;5036168;28;20041;-46
2022/08/28 05:06:12;;;;;;;9.68;3.15;;;13.00;98.60;;;;;;5036683;28;20099;-46
2022/08/28 05:08:40;;;;;;;13.40;3.10;;;13.00;98.60;;;;;;5040985;28;20057;-48
2022/08/28 05:11:11;;;;;;;9.05;2.92;;;13.00;98.90;;;;;;5047222;28;20075;-43
2022/08/28 05:13:38;;;;;;;13.95;3.17;;;13.00;98.80;;;;;;5035452;28;20105;-46
2022/08/28 05:16:05;;;;;;;9.68;3.05;;;12.90;98.80;;;;;;5053333;28;20102;-45
2022/08/28 05:18:32;;;;;;;8.85;2.63;;;13.00;99.00;;;;;;5051848;28;20048;-45
2022/08/28 05:20:59;;;;;;;6.50;2.78;;;12.90;99.10;;;;;;5055054;28;20114;-47
2022/08/28 05:23:25;;;;;;;10.48;3.28;;;13.00;99.10;;;;;;5054263;28;20041;-41
2022/08/28 05:25:54;;;;;;;10.27;3.60;;;13.00;99.10;;;;;;5054222;28;20049;-39
2022/08/28 05:28:21;;;;;;;8.18;3.00;;;13.00;99.20;;;;;;5030259;28;20059;-42
2022/08/28 05:30:47;;;;;;;10.35;4.18;;;13.00;99.10;;;;;;5053704;28;20223;-47
2022/08/28 05:33:14;;;;;;;7.22;2.88;;;13.00;99.40;;;;;;5024602;28;20049;-49
2022/08/28 05:35:42;;;;;;;12.02;3.50;;;13.00;99.40;;;;;;5033956;28;20551;-47
2022/08/28 05:38:09;;;;;;;11.65;3.08;;;13.00;99.50;;;;;;5034940;28;20094;-45
2022/08/28 05:40:40;;;;;;;10.20;3.20;;;13.00;99.40;;;;;;5036008;28;20037;-42
2022/08/28 05:43:09;;;;;;;6.70;2.80;;;13.10;99.40;;;;;;5054774;28;20045;-45
2022/08/28 05:45:35;;;;;;;8.43;3.30;;;13.10;99.50;;;;;;5033712;28;20128;-46
2022/08/28 05:48:03;;;;;;;8.98;3.30;;;13.10;99.70;;;;;;5027541;28;20520;-50
2022/08/28 05:50:30;;;;;;;5.45;2.65;;;13.20;99.90;;;;;;5047177;28;20055;-45
2022/08/28 05:52:56;;;;;;;9.10;3.60;;;13.30;99.70;;;;;;5035774;28;20048;-42
2022/08/28 05:55:23;;;;;;;15.68;4.10;;;13.40;99.70;;;;;;5053973;28;20053;-49
2022/08/28 05:57:50;;;;;;;7.80;2.90;;;13.40;99.90;;;;;;5052726;28;20496;-48
2022/08/28 06:00:18;;;;;;;7.78;3.17;;;13.40;99.90;;;;;;5052110;28;20057;-40
2022/08/28 06:02:45;;;;;;;8.55;3.05;;;13.50;99.90;;;;;;5051588;28;20090;-42
2022/08/28 06:05:13;;;;;;;7.50;3.17;;;13.60;99.70;;;;;;5034759;28;20369;-47
2022/08/28 06:07:40;;;;;;;7.78;2.97;;;13.60;99.70;;;;;;5052990;28;20136;-41
2022/08/28 06:10:08;;;;;;;9.65;3.30;;;13.70;99.70;;;;;;5053189;28;20087;-36
2022/08/28 06:12:34;;;;;;;6.65;3.10;;;13.80;99.90;;;;;;5048035;28;20079;-41
2022/08/28 06:15:01;;;;;;;12.90;3.38;;;13.90;99.90;;;;;;5046145;28;20041;-38
2022/08/28 06:17:30;;;;;;;12.85;3.42;;;14.00;99.90;;;;;;5027085;28;20481;-43
2022/08/28 06:19:56;;;;;;;8.68;3.20;;;14.10;99.90;;;;;;5051640;28;20045;-40
2022/08/28 06:22:23;;;;;;;14.32;3.53;;;14.30;99.90;;;;;;5052010;28;20421;-48
2022/08/28 06:24:50;;;;;;;9.40;3.22;;;14.40;99.90;;;;;;5052683;28;20044;-48
2022/08/28 06:27:17;;;;;;;13.38;3.53;;;14.50;99.90;;;;;;5053964;28;20116;-45
2022/08/28 06:29:44;;;;;;;10.95;3.50;;;14.50;99.90;;;;;;5048035;28;20068;-43
2022/08/28 06:32:12;;;;;;;7.30;3.08;;;14.60;99.90;;;;;;5049186;28;20064;-41
2022/08/28 06:34:40;;;;;;;14.50;3.40;;;14.80;99.90;;;;;;5024726;28;20060;-42
2022/08/28 06:37:08;;;;;;;10.90;3.15;;;14.90;99.90;;;;;;5031241;28;20056;-43
2022/08/28 06:39:35;;;;;;;12.43;3.40;;;15.10;99.90;;;;;;5050644;28;20112;-44
2022/08/28 06:42:02;;;;;;;8.35;2.85;;;15.30;99.90;;;;;;5048296;28;20119;-43
2022/08/28 06:44:30;;;;;;;7.15;2.85;;;15.40;99.90;;;;;;5027254;28;20094;-48
2022/08/28 06:46:57;;;;;;;12.15;3.03;;;15.50;99.90;;;;;;5047627;28;20044;-47
2022/08/28 06:49:24;;;;;;;8.30;2.92;;;15.60;99.90;;;;;;5051921;28;20055;-50
2022/08/28 06:51:52;;;;;;;13.65;2.85;;;15.70;99.90;;;;;;5048592;28;20116;-44
2022/08/28 06:54:19;;;;;;;9.07;2.47;;;15.80;99.90;;;;;;5049991;28;20049;-46
2022/08/28 06:56:46;;;;;;;13.07;2.75;;;16.00;99.90;;;;;;5051655;28;20045;-48
2022/08/28 06:59:13;;;;;;;9.77;2.63;;;16.10;99.90;;;;;;5046471;28;20472;-46
2022/08/28 07:01:40;;;;;;;7.60;2.78;;;16.20;99.70;;;;;;5047134;28;20087;-46
2022/08/28 07:04:08;;;;;;;12.32;2.70;;;16.40;99.40;;;;;;5034218;28;20091;-45
2022/08/28 07:06:35;;;;;;;10.13;2.53;;;16.50;99.20;;;;;;5050958;28;20392;-47
2022/08/28 07:09:05;;;;;;;12.32;3.15;;;16.70;99.10;;;;;;5032333;28;20122;-46
2022/08/28 07:11:32;;;;;;;10.60;2.53;;;16.80;99.00;;;;;;5049589;28;20396;-42
2022/08/28 07:13:59;;;;;;;11.93;2.55;;;17.00;98.80;;;;;;5047955;28;20393;-46
2022/08/28 07:16:28;;;;;;;14.68;2.72;;;17.10;98.50;;;;;;5051337;28;20044;-51
2022/08/28 07:19:03;;;;;;;14.07;2.72;;;17.20;98.30;;;;;;5019284;28;20048;-43
2022/08/28 07:21:31;;;;;;;9.02;2.53;;;17.50;98.00;;;;;;5043296;28;20247;-35
2022/08/28 07:23:58;;;;;;;9.20;2.75;;;17.50;97.90;;;;;;5029819;28;20441;-49
2022/08/28 07:26:26;;;;;;;11.35;2.53;;;17.70;97.70;;;;;;5051541;28;20433;-45
2022/08/28 07:28:54;;;;;;;13.65;2.22;;;17.80;97.50;;;;;;5050743;28;20500;-48
2022/08/28 07:31:21;;;;;;;11.65;2.50;;;17.90;96.90;;;;;;5051773;28;20045;-39
2022/08/28 07:33:49;;;;;;;8.00;2.35;;;18.10;96.70;;;;;;5032460;28;20045;-47
2022/08/28 07:36:17;;;;;;;10.05;2.28;;;18.20;96.50;;;;;;5052327;28;20473;-46
2022/08/28 07:38:44;;;;;;;8.80;2.17;;;18.40;96.30;;;;;;5043309;28;20041;-50
2022/08/28 07:41:15;;;;;;;7.35;2.13;;;18.50;96.10;;;;;;5034510;28;20084;-45
2022/08/28 07:46:28;;;;;;;9.18;2.00;;;18.80;95.60;;;;;;5033231;28;20045;-46
2022/08/28 07:48:55;;;;;;;7.57;1.65;;;19.00;95.30;;;;;;5033536;28;20374;-49
2022/08/28 07:51:22;;;;;;;12.60;2.17;;;19.20;94.90;;;;;;5042674;28;20045;-50
2022/08/28 07:53:49;;;;;;;9.95;2.35;;;19.30;94.60;;;;;;5050498;28;20090;-51
2022/08/28 07:56:16;;;;;;;7.97;1.77;;;19.50;94.10;;;;;;5049864;28;20480;-47
2022/08/28 07:58:44;;;;;;;9.13;2.10;;;19.70;93.80;;;;;;5032966;28;20102;-47
2022/08/28 08:01:11;;;;;;;13.38;2.35;;;19.80;93.60;;;;;;5045813;28;20106;-47
2022/08/28 08:03:38;;;;;;;8.43;2.03;;;20.00;93.50;;;;;;5033610;28;20052;-46
2022/08/28 08:06:05;;;;;;;8.18;2.10;;;20.20;93.30;;;;;;5033748;28;20465;-46
2022/08/28 08:08:32;;;;;;;8.98;2.08;;;20.30;92.80;;;;;;5026042;28;20065;-45
2022/08/28 08:11:00;;;;;;;7.25;1.92;;;20.50;92.50;;;;;;5048371;28;20041;-43
2022/08/28 08:13:28;;;;;;;10.50;2.15;;;20.60;91.70;;;;;;5037677;28;20088;-42
2022/08/28 08:16:00;;;;;;;8.95;1.83;;;20.70;91.10;;;;;;5031888;28;20095;-44
2022/08/28 08:18:26;;;;;;;6.70;1.70;;;20.80;90.90;;;;;;5048197;28;20119;-38
2022/08/28 08:20:53;;;;;;;6.05;2.03;;;20.90;90.20;;;;;;5049944;28;20087;-46
2022/08/28 08:23:20;;;;;;;7.47;1.95;;;21.00;89.10;;;;;;5028409;28;20462;-47
2022/08/28 08:25:54;;;;;;;9.07;1.65;;;21.10;88.10;;;;;;5048717;28;20481;-47
2022/08/28 08:28:21;;;;;;;8.85;2.05;;;21.20;87.70;;;;;;5044502;28;20075;-43
2022/08/28 08:30:48;;;;;;;8.00;1.55;;;21.30;87.00;;;;;;5049989;28;20123;-46
2022/08/28 08:33:16;;;;;;;7.45;1.85;;;21.40;86.00;;;;;;5032345;28;20045;-43
2022/08/28 08:35:42;;;;;;;5.20;1.77;;;21.50;85.10;;;;;;5028643;28;20085;-45
2022/08/28 08:38:09;;;;;;;6.10;1.85;;;21.60;85.00;;;;;;5019596;28;20120;-50
2022/08/28 08:40:36;;;;;;;10.00;1.70;;;21.70;84.10;;;;;;5046439;28;20072;-49
2022/08/28 08:43:03;;;;;;;6.93;1.80;;;21.70;84.20;;;;;;5032489;28;20041;-46
2022/08/28 08:45:29;;;;;;;7.57;1.63;;;21.70;83.80;;;;;;5033448;28;20136;-44
2022/08/28 08:47:56;;;;;;;4.75;1.48;;;21.60;83.00;;;;;;5049576;28;20047;-42
2022/08/28 08:50:25;;;;;;;7.25;1.67;;;21.40;82.30;;;;;;5029735;28;20073;-45
2022/08/28 08:53:04;;;;;;;8.65;2.28;;;21.20;81.80;;;;;;5046607;28;20067;-48
2022/08/28 08:55:33;;;;;;;7.63;2.15;;;21.00;81.70;;;;;;5026583;28;20087;-46
2022/08/28 08:58:03;;;;;;;8.23;2.10;;;21.00;83.40;;;;;;5030207;28;20067;-47
2022/08/28 09:00:31;;;;;;;5.33;1.70;;;21.20;83.50;;;;;;5012376;28;1062592;-45
2022/08/28 09:03:04;;;;;;;8.07;2.00;;;21.50;82.70;;;;;;5053404;28;20507;-47
2022/08/28 09:05:41;;;;;;;7.07;1.80;;;21.60;81.10;;;;;;5050195;28;20106;-47
2022/08/28 09:08:08;;;;;;;9.30;1.90;;;21.70;81.50;;;;;;5027012;28;20049;-42
2022/08/28 09:10:36;;;;;;;8.27;1.92;;;21.70;80.60;;;;;;5051739;28;20131;-47
2022/08/28 09:13:06;;;;;;;7.93;1.73;;;21.80;80.20;;;;;;5053459;28;20083;-44
2022/08/28 09:15:34;;;;;;;10.20;2.13;;;22.00;79.70;;;;;;5022394;28;20069;-48
2022/08/28 09:18:08;;;;;;;8.73;2.30;;;22.10;79.20;;;;;;5052933;28;20130;-44
2022/08/28 09:20:35;;;;;;;6.32;1.90;;;22.20;79.00;;;;;;5055334;28;20040;-46
2022/08/28 09:23:03;;;;;;;5.32;1.83;;;22.30;77.90;;;;;;5051648;28;20045;-42
2022/08/28 09:25:55;;;;;;;5.50;1.70;;;22.30;77.30;;;;;;5045096;28;20045;-48
2022/08/28 09:28:22;;;;;;;;;;;22.20;77.40;;;;;;5045203;28;20124;-43
2022/08/28 09:30:56;;;;;;;6.25;1.83;;;22.20;77.40;;;;;;5051644;28;19917;-44
2022/08/28 09:33:31;;;;;;;13.23;2.47;;;22.30;78.50;;;;;;5047792;28;20958;-43
2022/08/28 09:35:57;;;;;;;9.10;2.00;;;22.50;78.80;;;;;;5053499;28;20132;-44
2022/08/28 09:38:26;;;;;;;6.65;2.35;;;22.80;77.70;;;;;;5054640;28;20037;-49
2022/08/28 09:43:51;;;;;;;5.28;1.73;;;23.20;74.50;;;;;;5034961;28;20075;-46
2022/08/28 09:46:20;;;;;;;8.80;1.90;;;23.20;74.00;;;;;;5028316;28;20131;-47
2022/08/28 09:48:49;;;;;;;6.53;1.98;;;23.30;74.00;;;;;;5047392;28;20431;-45
2022/08/28 09:51:28;;;;;;;7.13;1.73;;;23.40;73.60;;;;;;5036872;28;20107;-49
2022/08/28 09:53:59;;;;;;;5.45;1.58;;;23.60;73.20;;;;;;5036945;28;20080;-51
2022/08/28 09:56:28;;;;;;;8.57;2.10;;;23.70;73.30;;;;;;5031076;28;20081;-44
2022/08/28 09:58:58;;;;;;;4.35;1.67;;;23.80;72.40;;;;;;5043781;28;20073;-47
2022/08/28 10:01:45;;;;;;;8.57;2.10;;;23.90;72.30;;;;;;5053825;28;20056;-50
2022/08/28 10:04:22;;;;;;;4.68;1.70;;;23.90;70.70;;;;;;5038929;28;20048;-45
2022/08/28 10:06:51;;;;;;;6.25;1.70;;;24.10;71.90;;;;;;5036238;28;20484;-49
2022/08/28 10:09:26;;;;;;;6.53;1.67;;;24.20;71.30;;;;;;5054025;28;20036;-44
2022/08/28 10:11:56;;;;;;;7.88;2.08;;;24.30;70.90;;;;;;5035946;28;20052;-43
2022/08/28 10:14:34;;;;;;;7.53;2.25;;;24.40;70.20;;;;;;5051501;28;20441;-43
2022/08/28 10:17:05;;;;;;;7.20;2.10;;;24.30;69.50;;;;;;5046145;28;20037;-41
2022/08/28 10:19:39;;;;;;;6.95;1.92;;;24.00;69.40;;;;;;5051235;28;20072;-48
2022/08/28 10:22:11;;;;;;;6.93;1.80;;;23.80;70.50;;;;;;5048187;28;20049;-50
2022/08/28 10:25:00;;;;;;;6.57;1.98;;;23.70;71.10;;;;;;5052276;28;20076;-47
2022/08/28 10:27:36;;;;;;;9.52;2.28;;;23.80;71.00;;;;;;5036079;28;20045;-45
2022/08/28 10:30:06;;;;;;;6.32;1.92;;;24.00;70.90;;;;;;5053835;28;20037;-46
2022/08/28 10:32:48;;;;;;;5.95;1.65;;;24.30;69.90;;;;;;5031936;28;20392;-47
2022/08/28 10:35:17;;;;;;;6.57;2.33;;;24.30;68.40;;;;;;5052669;28;20045;-43
2022/08/28 10:37:48;;;;;;;7.68;2.22;;;24.30;68.60;;;;;;5050878;28;20036;-45
2022/08/28 10:40:17;;;;;;;7.85;1.85;;;24.30;68.50;;;;;;5033586;28;20045;-47
2022/08/28 10:42:46;;;;;;;4.90;1.80;;;24.40;68.40;;;;;;5052223;28;20143;-47
2022/08/28 10:45:15;;;;;;;4.80;1.90;;;24.50;67.60;;;;;;5038611;28;20087;-38
2022/08/28 10:47:45;;;;;;;5.60;1.85;;;24.60;67.30;;;;;;5034941;28;20053;-49
2022/08/28 10:50:14;;;;;;;6.43;2.13;;;24.80;66.30;;;;;;5052902;28;20136;-47
2022/08/28 10:52:43;;;;;;;6.97;2.03;;;24.90;66.80;;;;;;5034931;28;20128;-47
2022/08/28 10:55:13;;;;;;;10.43;2.13;;;24.90;66.90;;;;;;5034953;28;20053;-44
2022/08/28 10:57:41;;;;;;;4.93;1.80;;;24.80;66.30;;;;;;5052105;28;20049;-44
2022/08/28 11:00:11;;;;;;;9.82;1.70;;;24.60;65.70;;;;;;5050078;28;21072;-44
2022/08/28 11:02:38;;;;;;;7.55;1.90;;;24.30;65.70;;;;;;5035122;28;20045;-47
2022/08/28 11:05:06;;;;;;;8.68;2.42;;;24.10;66.00;;;;;;5033063;28;20069;-48
2022/08/28 11:07:35;;;;;;;6.47;1.77;;;24.00;66.30;;;;;;5053280;28;20053;-46
2022/08/28 11:10:17;;;;;;;4.95;2.08;;;23.90;67.40;;;;;;5031291;28;20076;-43
2022/08/28 11:12:45;;;;;;;6.30;2.00;;;23.90;68.30;;;;;;5050079;28;20429;-49
2022/08/28 11:15:43;;;;;;;7.75;2.42;;;24.10;68.10;;;;;;5021205;28;20056;-48
2022/08/28 11:18:51;;;;;;;6.47;2.13;;;24.20;66.60;;;;;;5025148;28;20073;-45
2022/08/28 11:21:21;;;;;;;8.10;1.90;;;24.10;64.60;;;;;;5044388;28;20443;-43
2022/08/28 11:23:49;;;;;;;5.85;1.75;;;23.90;67.10;;;;;;5034854;28;20045;-43
2022/08/28 11:26:24;;;;;;;5.88;2.20;;;23.70;66.90;;;;;;5051906;28;20500;-46
2022/08/28 11:28:52;;;;;;;9.85;2.50;;;23.60;67.50;;;;;;5034889;28;20132;-42
2022/08/28 11:31:34;;;;;;;6.05;1.70;;;23.60;68.00;;;;;;5037899;28;20077;-43
2022/08/28 11:34:01;;;;;;;4.65;1.95;;;23.80;68.90;;;;;;5051604;28;20084;-47
2022/08/28 11:37:00;;;;;;;5.47;1.77;;;24.10;68.00;;;;;;5050824;28;20040;-43
2022/08/28 11:39:27;;;;;;;4.97;2.00;;;24.40;68.10;;;;;;5034811;28;20052;-44
2022/08/28 11:42:36;;;;;;;7.00;2.22;;;24.70;67.10;;;;;;5052836;28;20063;-42
2022/08/28 11:45:05;;;;;;;7.75;1.90;;;25.10;67.60;;;;;;5033888;28;20055;-46
2022/08/28 11:47:46;;;;;;;7.95;1.95;;;25.10;65.00;;;;;;5051185;28;20435;-45
2022/08/28 11:50:24;;;;;;;4.15;1.80;;;24.90;63.80;;;;;;5052183;28;20142;-36
2022/08/28 11:53:19;;;;;;;6.70;1.80;;;24.50;63.20;;;;;;5052564;28;20131;-49
2022/08/28 11:56:15;;;;;;;6.32;2.30;;;24.30;65.00;;;;;;5032774;28;20122;-44
2022/08/28 11:58:44;;;;;;;5.25;1.85;;;24.20;65.60;;;;;;5052682;28;20049;-48
2022/08/28 12:01:13;;;;;;;3.95;1.60;;;24.10;65.20;;;;;;5033870;28;20068;-46
2022/08/28 12:03:41;;;;;;;6.30;1.80;;;24.00;65.20;;;;;;5051736;28;20049;-45
2022/08/28 12:06:08;;;;;;;6.03;1.80;;;24.10;64.70;;;;;;5051671;28;20115;-44
2022/08/28 12:09:11;;;;;;;5.70;1.92;;;24.30;64.10;;;;;;5032234;28;20151;-48
2022/08/28 12:12:02;;;;;;;6.82;1.90;;;24.50;63.50;;;;;;5040778;28;20128;-47
2022/08/28 12:15:09;;;;;;;7.53;1.90;;;24.50;62.40;;;;;;5037301;28;20067;-48
2022/08/28 12:17:42;;;;;;;5.43;1.98;;;24.30;63.00;;;;;;5048656;28;20554;-48
2022/08/28 12:20:11;;;;;;;6.15;2.08;;;24.10;63.50;;;;;;5049433;28;20075;-48
2022/08/28 12:22:43;;;;;;;7.10;1.85;;;24.20;64.20;;;;;;5043990;28;20095;-51
2022/08/28 12:25:14;;;;;;;5.22;1.67;;;24.50;63.90;;;;;;5044415;28;20202;-49
2022/08/28 12:27:41;;;;;;;4.13;2.05;;;24.60;62.80;;;;;;5050295;28;20557;-51
2022/08/28 12:30:08;;;;;;;4.20;1.75;;;24.80;61.90;;;;;;5034660;28;20102;-49
2022/08/28 12:32:36;;;;;;;4.20;1.80;;;25.00;61.80;;;;;;5051533;28;20118;-51
2022/08/28 12:35:13;;;;;;;5.82;1.70;;;25.30;62.60;;;;;;5053511;28;20127;-48
2022/08/28 12:37:42;;;;;;;8.02;2.08;;;25.70;62.20;;;;;;5038240;28;20535;-49
2022/08/28 12:40:14;;;;;;;4.53;1.65;;;25.90;60.20;;;;;;5038068;28;20103;-49
2022/08/28 12:42:50;;;;;;;5.30;1.80;;;25.90;60.40;;;;;;5038661;28;20131;-50
2022/08/28 12:45:20;;;;;;;5.05;1.80;;;25.90;60.00;;;;;;5037738;28;20077;-47
2022/08/28 12:47:48;;;;;;;6.88;2.08;;;25.90;60.40;;;;;;5038531;28;20144;-48
2022/08/28 12:50:24;;;;;;;4.93;1.70;;;25.80;60.60;;;;;;5056021;28;20080;-53
2022/08/28 12:52:52;;;;;;;5.97;1.85;;;25.70;60.60;;;;;;5056082;28;20044;-50
2022/08/28 12:55:19;;;;;;;4.93;1.63;;;25.60;61.00;;;;;;5054581;28;20084;-47
2022/08/28 12:57:46;;;;;;;6.57;1.77;;;25.50;61.30;;;;;;5052812;28;20146;-47
2022/08/28 13:00:17;;;;;;;5.32;1.90;;;25.50;62.60;;;;;;5048495;28;20111;-50
2022/08/28 13:02:44;;;;;;;7.82;1.75;;;25.50;62.50;;;;;;5055411;28;20052;-50